VIR103 EGLL-KATL
Flight info
| Callsign | VIR103 |
|---|---|
| Flight time | N/A |
| Altitude | 36000 |
| Route | CPT L9 DIDZA N14 BIBPE DCT OKTAD DCT ELNIF DCT AZCAL DCT MEDOG DCT VATRY DCT GTG DCT GURGA DCT PIGET DCT BEGID DCT SUNOT/M085F360 DCT 58N020W 5830N03000W 58N040W 57N050W DCT HOIST/N0495F360 N750B YBC/N0481F380 Q910 GADAL DCT SYR J59 ZUUCS/N0478F400 J59 PSB Q71 GEFFS DCT HVQ DCT HLRRY ONDRE1 |
| Aircraft | A35K/H-SDE2E3GHIJ3J4J5LM1ORWXY/LB1D1 |
Departure
| Time | 2026-05-05 10:14 |
|---|---|
| Airport | London Heathrow Airport (EGLL) |
Arrival
| Time | N/A |
|---|---|
| Airport | Hartsfield Jackson Atlanta International Airport (KATL) |
| Time | Latitude | Longitude | Altitude | Speed | Heading |
|---|---|---|---|---|---|
| 2026-05-05 09:44 | 51.47040 | -0.46352 | 97 ft | 0 kts | 235° |
| 2026-05-05 09:57 | 51.47041 | -0.46352 | 92 ft | 0 kts | 235° |
| 2026-05-05 09:58 | 51.47047 | -0.46337 | 95 ft | 4 kts | 235° |
| 2026-05-05 09:59 | 51.47062 | -0.46301 | 94 ft | 4 kts | 235° |
| 2026-05-05 09:59 | 51.47073 | -0.46269 | 94 ft | 4 kts | 277° |
| 2026-05-05 09:59 | 51.47062 | -0.46234 | 93 ft | 4 kts | 317° |
| 2026-05-05 09:59 | 51.47041 | -0.46207 | 93 ft | 4 kts | 326° |
| 2026-05-05 10:00 | 51.47028 | -0.46194 | 92 ft | 0 kts | 325° |
| 2026-05-05 10:00 | 51.47029 | -0.46194 | 92 ft | 0 kts | 325° |
| 2026-05-05 10:03 | 51.47030 | -0.46195 | 92 ft | 1 kts | 325° |
| 2026-05-05 10:03 | 51.47052 | -0.46221 | 97 ft | 6 kts | 324° |
| 2026-05-05 10:03 | 51.47099 | -0.46272 | 96 ft | 10 kts | 327° |
| 2026-05-05 10:04 | 51.47165 | -0.46343 | 96 ft | 13 kts | 326° |
| 2026-05-05 10:04 | 51.47235 | -0.46446 | 97 ft | 15 kts | 290° |
| 2026-05-05 10:04 | 51.47240 | -0.46533 | 94 ft | 10 kts | 269° |
| 2026-05-05 10:04 | 51.47240 | -0.46541 | 93 ft | 0 kts | 268° |
| 2026-05-05 10:05 | 51.47240 | -0.46544 | 93 ft | 2 kts | 267° |
| 2026-05-05 10:05 | 51.47238 | -0.46621 | 93 ft | 12 kts | 270° |
| 2026-05-05 10:05 | 51.47238 | -0.46725 | 94 ft | 13 kts | 270° |
| 2026-05-05 10:05 | 51.47225 | -0.46849 | 95 ft | 8 kts | 226° |
| 2026-05-05 10:06 | 51.47147 | -0.46865 | 92 ft | 14 kts | 179° |
| 2026-05-05 10:06 | 51.47053 | -0.46864 | 94 ft | 7 kts | 179° |
| 2026-05-05 10:06 | 51.46995 | -0.46862 | 92 ft | 14 kts | 179° |
| 2026-05-05 10:06 | 51.46898 | -0.46862 | 94 ft | 9 kts | 180° |
| 2026-05-05 10:07 | 51.46892 | -0.46862 | 94 ft | 0 kts | 179° |
| 2026-05-05 10:07 | 51.46860 | -0.46862 | 94 ft | 13 kts | 180° |
| 2026-05-05 10:08 | 51.46764 | -0.46883 | 94 ft | 15 kts | 215° |
| 2026-05-05 10:08 | 51.46746 | -0.47076 | 95 ft | 21 kts | 270° |
| 2026-05-05 10:08 | 51.46745 | -0.47272 | 95 ft | 18 kts | 270° |
| 2026-05-05 10:08 | 51.46745 | -0.47549 | 94 ft | 21 kts | 269° |
| 2026-05-05 10:09 | 51.46744 | -0.47749 | 94 ft | 18 kts | 270° |
| 2026-05-05 10:09 | 51.46744 | -0.47941 | 93 ft | 16 kts | 269° |
| 2026-05-05 10:09 | 51.46743 | -0.48089 | 92 ft | 13 kts | 269° |
| 2026-05-05 10:09 | 51.46742 | -0.48255 | 92 ft | 18 kts | 270° |
| 2026-05-05 10:10 | 51.46742 | -0.48468 | 92 ft | 18 kts | 269° |
| 2026-05-05 10:10 | 51.46741 | -0.48658 | 92 ft | 14 kts | 268° |
| 2026-05-05 10:10 | 51.46695 | -0.48734 | 97 ft | 9 kts | 198° |
| 2026-05-05 10:10 | 51.46663 | -0.48744 | 96 ft | 0 kts | 187° |
| 2026-05-05 10:11 | 51.46656 | -0.48746 | 95 ft | 3 kts | 188° |
| 2026-05-05 10:11 | 51.46606 | -0.48765 | 95 ft | 8 kts | 196° |
| 2026-05-05 10:11 | 51.46552 | -0.48784 | 95 ft | 10 kts | 183° |
| 2026-05-05 10:11 | 51.46497 | -0.48744 | 96 ft | 8 kts | 133° |
| 2026-05-05 10:12 | 51.46482 | -0.48669 | 95 ft | 7 kts | 96° |
| 2026-05-05 10:12 | 51.46481 | -0.48656 | 94 ft | 0 kts | 94° |
| 2026-05-05 10:12 | 51.46481 | -0.48648 | 94 ft | 2 kts | 95° |
| 2026-05-05 10:13 | 51.46479 | -0.48619 | 93 ft | 3 kts | 94° |
| 2026-05-05 10:13 | 51.46479 | -0.48597 | 93 ft | 0 kts | 90° |
| 2026-05-05 10:13 | 51.46479 | -0.48586 | 93 ft | 7 kts | 89° |
| 2026-05-05 10:13 | 51.46480 | -0.48215 | 94 ft | 65 kts | 89° |
| 2026-05-05 10:14 | 51.46482 | -0.47128 | 95 ft | 126 kts | 89° |
| 2026-05-05 10:14 | 51.46479 | -0.45445 | 168 ft | 168 kts | 89° |
| 2026-05-05 10:14 | 51.46463 | -0.43624 | 904 ft | 161 kts | 89° |
| 2026-05-05 10:14 | 51.46444 | -0.41811 | 1494 ft | 168 kts | 87° |
| 2026-05-05 10:15 | 51.46277 | -0.39926 | 1949 ft | 181 kts | 108° |
| 2026-05-05 10:15 | 51.45404 | -0.38299 | 2164 ft | 210 kts | 146° |
| 2026-05-05 10:15 | 51.43936 | -0.37649 | 2400 ft | 238 kts | 180° |
| 2026-05-05 10:15 | 51.42279 | -0.38358 | 2751 ft | 256 kts | 211° |
| 2026-05-05 10:16 | 51.40896 | -0.40201 | 3305 ft | 264 kts | 234° |
| 2026-05-05 10:16 | 51.40076 | -0.42862 | 3916 ft | 269 kts | 252° |
| 2026-05-05 10:16 | 51.39689 | -0.45810 | 4563 ft | 274 kts | 269° |
| 2026-05-05 10:16 | 51.39890 | -0.48808 | 5284 ft | 273 kts | 284° |
| 2026-05-05 10:17 | 51.40414 | -0.51741 | 6057 ft | 275 kts | 291° |
| 2026-05-05 10:17 | 51.41110 | -0.54599 | 6835 ft | 275 kts | 294° |
| 2026-05-05 10:17 | 51.41886 | -0.57416 | 7626 ft | 276 kts | 296° |
| 2026-05-05 10:17 | 51.42685 | -0.60208 | 8464 ft | 277 kts | 295° |
| 2026-05-05 10:18 | 51.43484 | -0.63045 | 9283 ft | 280 kts | 295° |
| 2026-05-05 10:18 | 51.44270 | -0.65920 | 10079 ft | 283 kts | 294° |
| 2026-05-05 10:18 | 51.45064 | -0.68894 | 10555 ft | 299 kts | 294° |
| 2026-05-05 10:18 | 51.45896 | -0.72063 | 10869 ft | 318 kts | 294° |
| 2026-05-05 10:19 | 51.46768 | -0.75424 | 11234 ft | 336 kts | 293° |
| 2026-05-05 10:19 | 51.47687 | -0.78976 | 11596 ft | 352 kts | 294° |
| 2026-05-05 10:19 | 51.48641 | -0.82662 | 12156 ft | 361 kts | 293° |
| 2026-05-05 10:19 | 51.49612 | -0.86427 | 12827 ft | 368 kts | 294° |
| 2026-05-05 10:20 | 51.50595 | -0.90249 | 13501 ft | 374 kts | 293° |
| 2026-05-05 10:20 | 51.51595 | -0.94134 | 14173 ft | 378 kts | 293° |
| 2026-05-05 10:20 | 51.52602 | -0.98052 | 14845 ft | 381 kts | 292° |
| 2026-05-05 10:20 | 51.53616 | -1.02008 | 15492 ft | 385 kts | 292° |
| 2026-05-05 10:21 | 51.54640 | -1.06004 | 16108 ft | 389 kts | 292° |
| 2026-05-05 10:21 | 51.55674 | -1.10051 | 16786 ft | 392 kts | 292° |
| 2026-05-05 10:21 | 51.56715 | -1.14128 | 17419 ft | 397 kts | 291° |
| 2026-05-05 10:21 | 51.57754 | -1.18198 | 18085 ft | 400 kts | 291° |
| 2026-05-05 10:22 | 51.58829 | -1.22425 | 18678 ft | 405 kts | 290° |
| 2026-05-05 10:22 | 51.59882 | -1.26574 | 19274 ft | 408 kts | 290° |
| 2026-05-05 10:22 | 51.60953 | -1.30812 | 19936 ft | 410 kts | 290° |
| 2026-05-05 10:22 | 51.62032 | -1.35080 | 20563 ft | 413 kts | 290° |
| 2026-05-05 10:23 | 51.63119 | -1.39379 | 21148 ft | 417 kts | 290° |
| 2026-05-05 10:23 | 51.64213 | -1.43722 | 21739 ft | 420 kts | 291° |
| 2026-05-05 10:23 | 51.65313 | -1.48101 | 22376 ft | 423 kts | 290° |
| 2026-05-05 10:23 | 51.66422 | -1.52521 | 22942 ft | 427 kts | 290° |
| 2026-05-05 10:24 | 51.67541 | -1.56983 | 23534 ft | 431 kts | 290° |
| 2026-05-05 10:24 | 51.68666 | -1.61478 | 24032 ft | 434 kts | 290° |
| 2026-05-05 10:24 | 51.69756 | -1.66031 | 24567 ft | 435 kts | 286° |
| 2026-05-05 10:24 | 51.70481 | -1.70759 | 25125 ft | 435 kts | 278° |
| 2026-05-05 10:25 | 51.70965 | -1.75580 | 25664 ft | 436 kts | 276° |
| 2026-05-05 10:25 | 51.71359 | -1.80375 | 26202 ft | 437 kts | 274° |
| 2026-05-05 10:25 | 51.71804 | -1.85244 | 26728 ft | 441 kts | 278° |
| 2026-05-05 10:25 | 51.72426 | -1.90093 | 27261 ft | 443 kts | 279° |
| 2026-05-05 10:26 | 51.73095 | -1.94959 | 27782 ft | 446 kts | 280° |
| 2026-05-05 10:26 | 51.73800 | -1.99863 | 28217 ft | 450 kts | 280° |
| 2026-05-05 10:26 | 51.74529 | -2.04811 | 28706 ft | 453 kts | 280° |
| 2026-05-05 10:26 | 51.75265 | -2.09762 | 29198 ft | 455 kts | 280° |
| 2026-05-05 10:27 | 51.76005 | -2.14740 | 29685 ft | 457 kts | 280° |
| 2026-05-05 10:27 | 51.76743 | -2.19735 | 30123 ft | 459 kts | 279° |
| 2026-05-05 10:27 | 51.77482 | -2.24765 | 30441 ft | 462 kts | 279° |
| 2026-05-05 10:27 | 51.78224 | -2.29844 | 30725 ft | 466 kts | 280° |
| 2026-05-05 10:28 | 51.78968 | -2.34972 | 31021 ft | 469 kts | 280° |
| 2026-05-05 10:28 | 51.79711 | -2.40110 | 31372 ft | 471 kts | 281° |
| 2026-05-05 10:28 | 51.80457 | -2.45284 | 31631 ft | 475 kts | 281° |
| 2026-05-05 10:28 | 51.81199 | -2.50445 | 31805 ft | 480 kts | 281° |
| 2026-05-05 10:29 | 51.81964 | -2.55780 | 32133 ft | 481 kts | 281° |
| 2026-05-05 10:29 | 51.82697 | -2.60975 | 32558 ft | 480 kts | 281° |
| 2026-05-05 10:29 | 51.83418 | -2.66262 | 32906 ft | 481 kts | 280° |
| 2026-05-05 10:29 | 51.84125 | -2.71555 | 33222 ft | 482 kts | 281° |
| 2026-05-05 10:30 | 51.84829 | -2.76856 | 33531 ft | 483 kts | 281° |
| 2026-05-05 10:30 | 51.85536 | -2.82182 | 33860 ft | 483 kts | 281° |
| 2026-05-05 10:30 | 51.86247 | -2.87501 | 34148 ft | 484 kts | 281° |
| 2026-05-05 10:30 | 51.86956 | -2.92820 | 34427 ft | 484 kts | 282° |
| 2026-05-05 10:31 | 51.88380 | -3.03578 | 34742 ft | 489 kts | 282° |
| 2026-05-05 10:31 | 51.89080 | -3.08881 | 35176 ft | 485 kts | 282° |
| 2026-05-05 10:31 | 51.89780 | -3.14208 | 35570 ft | 482 kts | 282° |
| 2026-05-05 10:32 | 51.90485 | -3.19584 | 35854 ft | 482 kts | 282° |
| 2026-05-05 10:32 | 51.91173 | -3.24826 | 35984 ft | 484 kts | 281° |
| 2026-05-05 10:32 | 51.92570 | -3.35597 | 36024 ft | 490 kts | 281° |
| 2026-05-05 10:33 | 51.93958 | -3.46412 | 36030 ft | 490 kts | 282° |
| 2026-05-05 10:33 | 51.95868 | -3.57011 | 36032 ft | 491 kts | 294° |
| 2026-05-05 10:34 | 51.98861 | -3.66990 | 36030 ft | 492 kts | 297° |
| 2026-05-05 10:34 | 52.02023 | -3.76837 | 36037 ft | 491 kts | 298° |
| 2026-05-05 10:35 | 52.05171 | -3.86600 | 36039 ft | 491 kts | 298° |
| 2026-05-05 10:35 | 52.08316 | -3.96454 | 36038 ft | 491 kts | 298° |
| 2026-05-05 10:36 | 52.11436 | -4.06309 | 36040 ft | 489 kts | 298° |
| 2026-05-05 10:36 | 52.14537 | -4.16170 | 36051 ft | 490 kts | 298° |
| 2026-05-05 10:37 | 52.17637 | -4.26063 | 36049 ft | 490 kts | 298° |
| 2026-05-05 10:37 | 52.20712 | -4.35899 | 36057 ft | 489 kts | 297° |
| 2026-05-05 10:38 | 52.23783 | -4.45772 | 36056 ft | 487 kts | 297° |
| 2026-05-05 10:38 | 52.26834 | -4.55617 | 36064 ft | 484 kts | 297° |
| 2026-05-05 10:39 | 52.29874 | -4.65464 | 36064 ft | 485 kts | 297° |
| 2026-05-05 10:39 | 52.32885 | -4.75262 | 36063 ft | 484 kts | 297° |
| 2026-05-05 10:40 | 52.35905 | -4.85126 | 36066 ft | 484 kts | 297° |
| 2026-05-05 10:40 | 52.38917 | -4.95006 | 36066 ft | 485 kts | 297° |
| 2026-05-05 10:41 | 52.41904 | -5.04845 | 36073 ft | 483 kts | 296° |
| 2026-05-05 10:41 | 52.44884 | -5.14700 | 36071 ft | 481 kts | 296° |
| 2026-05-05 10:42 | 52.49321 | -5.29449 | 36071 ft | 478 kts | 296° |
| 2026-05-05 10:43 | 52.52256 | -5.39257 | 36073 ft | 479 kts | 296° |
| 2026-05-05 10:43 | 52.55297 | -5.49013 | 36080 ft | 481 kts | 302° |
| 2026-05-05 10:44 | 52.59125 | -5.57880 | 36074 ft | 474 kts | 307° |
| 2026-05-05 10:44 | 52.63137 | -5.66540 | 36081 ft | 481 kts | 307° |
| 2026-05-05 10:45 | 52.67210 | -5.75238 | 36078 ft | 477 kts | 307° |
| 2026-05-05 10:45 | 52.71241 | -5.83906 | 36073 ft | 474 kts | 307° |
| 2026-05-05 10:46 | 52.75240 | -5.92565 | 36076 ft | 474 kts | 306° |
| 2026-05-05 10:46 | 52.79228 | -6.01244 | 36076 ft | 477 kts | 307° |
| 2026-05-05 10:47 | 52.83217 | -6.09946 | 36070 ft | 478 kts | 307° |
| 2026-05-05 10:47 | 52.87183 | -6.18793 | 36074 ft | 476 kts | 303° |
| 2026-05-05 10:48 | 52.90733 | -6.28055 | 36071 ft | 475 kts | 300° |
| 2026-05-05 10:48 | 52.94176 | -6.37397 | 36072 ft | 474 kts | 301° |
| 2026-05-05 10:49 | 52.97661 | -6.46688 | 36072 ft | 475 kts | 301° |
| 2026-05-05 10:49 | 53.01190 | -6.55985 | 36071 ft | 478 kts | 301° |
| 2026-05-05 10:50 | 53.04736 | -6.65309 | 36070 ft | 476 kts | 301° |
| 2026-05-05 10:50 | 53.08263 | -6.74625 | 36081 ft | 476 kts | 301° |
| 2026-05-05 10:51 | 53.11934 | -6.83768 | 36078 ft | 476 kts | 308° |
| 2026-05-05 10:51 | 53.15499 | -6.90753 | 36075 ft | 476 kts | 310° |
| 2026-05-05 10:52 | 53.19896 | -6.99015 | 36080 ft | 476 kts | 310° |
| 2026-05-05 10:52 | 53.25030 | -7.08597 | 36077 ft | 476 kts | 310° |
| 2026-05-05 10:53 | 53.28694 | -7.15476 | 36075 ft | 476 kts | 310° |
| 2026-05-05 10:53 | 53.33115 | -7.23826 | 36080 ft | 476 kts | 310° |
| 2026-05-05 10:54 | 53.37464 | -7.32073 | 36081 ft | 475 kts | 310° |
| 2026-05-05 10:54 | 53.41833 | -7.40389 | 36080 ft | 475 kts | 310° |
| 2026-05-05 10:55 | 53.46189 | -7.48705 | 36083 ft | 475 kts | 310° |
| 2026-05-05 10:55 | 53.50522 | -7.57003 | 36095 ft | 475 kts | 310° |
| 2026-05-05 10:56 | 53.54869 | -7.65358 | 36089 ft | 474 kts | 310° |
| 2026-05-05 10:56 | 53.59206 | -7.73721 | 36090 ft | 474 kts | 310° |
| 2026-05-05 10:57 | 53.63538 | -7.82104 | 36080 ft | 474 kts | 310° |
| 2026-05-05 10:57 | 53.67861 | -7.90498 | 36083 ft | 474 kts | 310° |
| 2026-05-05 10:58 | 53.72175 | -7.98902 | 36086 ft | 474 kts | 310° |
| 2026-05-05 10:58 | 53.76483 | -8.07325 | 36094 ft | 473 kts | 310° |
| 2026-05-05 10:59 | 53.80790 | -8.15772 | 36076 ft | 473 kts | 310° |
| 2026-05-05 10:59 | 53.85059 | -8.24177 | 36078 ft | 473 kts | 310° |
| 2026-05-05 11:00 | 53.89347 | -8.32646 | 36100 ft | 473 kts | 310° |
| 2026-05-05 11:00 | 53.93631 | -8.41133 | 36098 ft | 473 kts | 310° |
| 2026-05-05 11:01 | 53.97906 | -8.49635 | 36101 ft | 472 kts | 309° |
| 2026-05-05 11:01 | 54.02167 | -8.58139 | 36102 ft | 472 kts | 309° |
| 2026-05-05 11:02 | 54.06400 | -8.66616 | 36117 ft | 472 kts | 309° |
| 2026-05-05 11:02 | 54.10647 | -8.75150 | 36102 ft | 472 kts | 309° |
| 2026-05-05 11:03 | 54.14894 | -8.83715 | 36137 ft | 472 kts | 309° |
| 2026-05-05 11:03 | 54.19128 | -8.92282 | 36124 ft | 472 kts | 309° |
| 2026-05-05 11:04 | 54.23350 | -9.00854 | 36126 ft | 471 kts | 309° |
| 2026-05-05 11:04 | 54.27565 | -9.09445 | 36122 ft | 471 kts | 309° |
| 2026-05-05 11:05 | 54.31746 | -9.17993 | 36122 ft | 470 kts | 309° |
| 2026-05-05 11:05 | 54.35940 | -9.26598 | 36134 ft | 470 kts | 309° |
| 2026-05-05 11:06 | 54.40131 | -9.35228 | 36141 ft | 470 kts | 309° |
| 2026-05-05 11:06 | 54.44308 | -9.43860 | 36134 ft | 470 kts | 309° |
| 2026-05-05 11:07 | 54.48458 | -9.52465 | 36146 ft | 470 kts | 309° |
| 2026-05-05 11:07 | 54.52620 | -9.61126 | 36146 ft | 470 kts | 308° |
| 2026-05-05 11:08 | 54.56775 | -9.69802 | 36147 ft | 470 kts | 308° |
| 2026-05-05 11:08 | 54.60928 | -9.78506 | 36153 ft | 470 kts | 308° |
| 2026-05-05 11:09 | 54.65077 | -9.87230 | 36153 ft | 470 kts | 308° |
| 2026-05-05 11:09 | 54.69214 | -9.95964 | 36155 ft | 469 kts | 308° |
| 2026-05-05 11:10 | 54.73349 | -10.04722 | 36160 ft | 469 kts | 308° |
| 2026-05-05 11:10 | 54.77473 | -10.13489 | 36162 ft | 469 kts | 308° |
| 2026-05-05 11:11 | 54.81592 | -10.22275 | 36159 ft | 469 kts | 308° |
| 2026-05-05 11:11 | 54.85678 | -10.31021 | 36168 ft | 469 kts | 308° |
| 2026-05-05 11:12 | 54.89779 | -10.39833 | 36161 ft | 469 kts | 308° |
| 2026-05-05 11:12 | 54.93879 | -10.48676 | 36167 ft | 471 kts | 308° |
| 2026-05-05 11:13 | 54.97987 | -10.57566 | 36168 ft | 471 kts | 307° |
| 2026-05-05 11:13 | 55.02060 | -10.66412 | 36170 ft | 470 kts | 307° |
| 2026-05-05 11:14 | 55.06155 | -10.75338 | 36177 ft | 470 kts | 307° |
| 2026-05-05 11:14 | 55.10233 | -10.84259 | 36171 ft | 470 kts | 307° |
| 2026-05-05 11:15 | 55.14304 | -10.93198 | 36172 ft | 470 kts | 307° |
| 2026-05-05 11:15 | 55.18370 | -11.02160 | 36174 ft | 470 kts | 307° |
| 2026-05-05 11:16 | 55.22400 | -11.11075 | 36176 ft | 470 kts | 307° |
| 2026-05-05 11:16 | 55.26464 | -11.20096 | 36178 ft | 471 kts | 307° |
| 2026-05-05 11:17 | 55.30517 | -11.29127 | 36180 ft | 470 kts | 307° |
| 2026-05-05 11:17 | 55.34560 | -11.38168 | 36177 ft | 470 kts | 307° |
| 2026-05-05 11:18 | 55.38594 | -11.47222 | 36180 ft | 470 kts | 307° |
| 2026-05-05 11:18 | 55.42597 | -11.56241 | 36181 ft | 470 kts | 307° |
| 2026-05-05 11:19 | 55.46642 | -11.65388 | 36183 ft | 470 kts | 306° |
| 2026-05-05 11:19 | 55.50631 | -11.74442 | 36181 ft | 470 kts | 306° |
| 2026-05-05 11:20 | 55.54638 | -11.83572 | 36182 ft | 470 kts | 306° |
| 2026-05-05 11:20 | 55.58641 | -11.92727 | 36186 ft | 470 kts | 306° |
| 2026-05-05 11:21 | 55.62633 | -12.01889 | 36187 ft | 470 kts | 306° |
| 2026-05-05 11:21 | 55.66622 | -12.11080 | 36186 ft | 470 kts | 306° |
| 2026-05-05 11:22 | 55.70604 | -12.20288 | 36202 ft | 470 kts | 306° |
| 2026-05-05 11:22 | 55.74569 | -12.29493 | 36193 ft | 470 kts | 306° |
| 2026-05-05 11:23 | 55.78536 | -12.38737 | 36193 ft | 470 kts | 306° |
| 2026-05-05 11:23 | 55.82489 | -12.47983 | 36198 ft | 469 kts | 306° |
| 2026-05-05 11:24 | 55.86470 | -12.57087 | 36197 ft | 469 kts | 307° |
| 2026-05-05 11:24 | 55.90624 | -12.66088 | 36198 ft | 470 kts | 308° |
| 2026-05-05 11:25 | 55.94777 | -12.75096 | 36200 ft | 469 kts | 308° |
| 2026-05-05 11:25 | 55.98894 | -12.84144 | 36202 ft | 469 kts | 307° |
| 2026-05-05 11:26 | 56.02997 | -12.93240 | 36196 ft | 469 kts | 307° |
| 2026-05-05 11:26 | 56.07062 | -13.02290 | 36202 ft | 469 kts | 307° |
| 2026-05-05 11:27 | 56.11142 | -13.11406 | 36208 ft | 469 kts | 307° |
| 2026-05-05 11:27 | 56.15219 | -13.20548 | 36201 ft | 469 kts | 307° |
| 2026-05-05 11:28 | 56.19284 | -13.29696 | 36200 ft | 468 kts | 307° |
| 2026-05-05 11:28 | 56.23343 | -13.38865 | 36224 ft | 468 kts | 307° |
| 2026-05-05 11:29 | 56.27391 | -13.48042 | 36224 ft | 468 kts | 307° |
| 2026-05-05 11:29 | 56.31428 | -13.57232 | 36206 ft | 468 kts | 307° |
| 2026-05-05 11:30 | 56.35466 | -13.66458 | 36208 ft | 468 kts | 307° |
| 2026-05-05 11:30 | 56.39491 | -13.75691 | 36216 ft | 468 kts | 306° |
| 2026-05-05 11:31 | 56.43486 | -13.84887 | 36217 ft | 468 kts | 306° |
| 2026-05-05 11:31 | 56.47497 | -13.94158 | 36217 ft | 468 kts | 306° |
| 2026-05-05 11:32 | 56.51531 | -14.03405 | 36221 ft | 468 kts | 309° |
| 2026-05-05 11:32 | 56.55931 | -14.12115 | 36220 ft | 468 kts | 312° |
| 2026-05-05 11:33 | 56.60434 | -14.20659 | 36223 ft | 468 kts | 311° |
| 2026-05-05 11:33 | 56.64892 | -14.29310 | 36222 ft | 469 kts | 311° |
| 2026-05-05 11:34 | 56.69305 | -14.38046 | 36224 ft | 468 kts | 310° |
| 2026-05-05 11:34 | 56.73696 | -14.46814 | 36224 ft | 468 kts | 310° |
| 2026-05-05 11:35 | 56.78062 | -14.55561 | 36225 ft | 468 kts | 310° |
| 2026-05-05 11:35 | 56.82447 | -14.64370 | 36229 ft | 468 kts | 310° |
| 2026-05-05 11:36 | 56.86812 | -14.73172 | 36226 ft | 467 kts | 310° |
| 2026-05-05 11:36 | 56.91168 | -14.81987 | 36217 ft | 467 kts | 310° |
| 2026-05-05 11:37 | 56.95521 | -14.90832 | 36224 ft | 468 kts | 310° |
| 2026-05-05 11:37 | 56.99595 | -15.00104 | 36222 ft | 465 kts | 300° |
| 2026-05-05 11:38 | 57.02456 | -15.10727 | 36235 ft | 464 kts | 292° |
| 2026-05-05 11:38 | 57.04918 | -15.21564 | 36223 ft | 462 kts | 291° |
| 2026-05-05 11:39 | 57.07322 | -15.32512 | 36226 ft | 462 kts | 291° |
| 2026-05-05 11:39 | 57.09728 | -15.43469 | 36225 ft | 462 kts | 291° |
| 2026-05-05 11:40 | 57.12143 | -15.54443 | 36224 ft | 462 kts | 291° |
| 2026-05-05 11:40 | 57.14554 | -15.65428 | 36229 ft | 462 kts | 291° |
| 2026-05-05 11:41 | 57.16940 | -15.76355 | 36226 ft | 462 kts | 291° |
| 2026-05-05 11:41 | 57.19334 | -15.87382 | 36228 ft | 462 kts | 291° |
| 2026-05-05 11:42 | 57.21312 | -15.96539 | 36227 ft | 461 kts | 291° |
| 2026-05-05 11:42 | 57.23675 | -16.07532 | 36229 ft | 460 kts | 291° |
| 2026-05-05 11:43 | 57.26028 | -16.18538 | 36225 ft | 460 kts | 291° |
| 2026-05-05 11:43 | 57.28373 | -16.29565 | 36224 ft | 460 kts | 291° |
| 2026-05-05 11:44 | 57.30692 | -16.40530 | 36234 ft | 461 kts | 291° |
| 2026-05-05 11:44 | 57.33017 | -16.51581 | 36237 ft | 461 kts | 291° |
| 2026-05-05 11:45 | 57.35335 | -16.62660 | 36237 ft | 461 kts | 291° |
| 2026-05-05 11:45 | 57.37642 | -16.73743 | 36243 ft | 460 kts | 290° |
| 2026-05-05 11:46 | 57.39934 | -16.84818 | 36248 ft | 460 kts | 290° |
| 2026-05-05 11:46 | 57.42214 | -16.95897 | 36240 ft | 460 kts | 290° |
| 2026-05-05 11:47 | 57.44486 | -17.07000 | 36247 ft | 460 kts | 290° |
| 2026-05-05 11:47 | 57.46750 | -17.18120 | 36249 ft | 460 kts | 290° |
| 2026-05-05 11:48 | 57.50113 | -17.34756 | 36254 ft | 460 kts | 290° |
| 2026-05-05 11:48 | 57.52352 | -17.45909 | 36260 ft | 460 kts | 290° |
| 2026-05-05 11:49 | 57.54581 | -17.57078 | 36258 ft | 460 kts | 290° |
| 2026-05-05 11:49 | 57.56800 | -17.68257 | 36264 ft | 460 kts | 290° |
| 2026-05-05 11:50 | 57.59011 | -17.79458 | 36264 ft | 461 kts | 290° |
| 2026-05-05 11:50 | 57.61214 | -17.90686 | 36267 ft | 461 kts | 290° |
| 2026-05-05 11:51 | 57.63401 | -18.01893 | 36270 ft | 461 kts | 290° |
| 2026-05-05 11:51 | 57.65587 | -18.13160 | 36270 ft | 461 kts | 290° |
| 2026-05-05 11:52 | 57.67762 | -18.24441 | 36272 ft | 461 kts | 290° |
| 2026-05-05 11:52 | 57.69926 | -18.35724 | 36291 ft | 461 kts | 290° |
| 2026-05-05 11:53 | 57.72083 | -18.47043 | 36270 ft | 461 kts | 290° |
| 2026-05-05 11:53 | 57.74226 | -18.58351 | 36280 ft | 462 kts | 290° |
| 2026-05-05 11:54 | 57.76349 | -18.69620 | 36277 ft | 462 kts | 290° |
| 2026-05-05 11:54 | 57.78479 | -18.80988 | 36277 ft | 462 kts | 290° |
| 2026-05-05 11:55 | 57.80599 | -18.92375 | 36282 ft | 462 kts | 289° |
| 2026-05-05 11:55 | 57.82711 | -19.03788 | 36280 ft | 462 kts | 289° |
| 2026-05-05 11:56 | 57.84811 | -19.15210 | 36286 ft | 462 kts | 289° |
| 2026-05-05 11:56 | 57.86899 | -19.26633 | 36291 ft | 462 kts | 290° |
| 2026-05-05 11:57 | 57.88966 | -19.38008 | 36294 ft | 463 kts | 290° |
| 2026-05-05 11:57 | 57.91038 | -19.49473 | 36292 ft | 463 kts | 289° |
| 2026-05-05 11:58 | 57.93099 | -19.60957 | 36294 ft | 463 kts | 289° |
| 2026-05-05 11:58 | 57.95149 | -19.72448 | 36294 ft | 463 kts | 289° |
| 2026-05-05 11:59 | 57.97193 | -19.83974 | 36294 ft | 463 kts | 289° |
| 2026-05-05 11:59 | 57.99221 | -19.95495 | 36294 ft | 463 kts | 289° |
| 2026-05-05 12:00 | 58.00665 | -20.07360 | 36300 ft | 466 kts | 282° |
| 2026-05-05 12:00 | 58.01773 | -20.19353 | 36300 ft | 467 kts | 281° |
| 2026-05-05 12:01 | 58.02824 | -20.31446 | 36303 ft | 467 kts | 281° |
| 2026-05-05 12:01 | 58.03867 | -20.43558 | 36304 ft | 467 kts | 281° |
| 2026-05-05 12:02 | 58.04906 | -20.55661 | 36303 ft | 467 kts | 281° |
| 2026-05-05 12:02 | 58.05933 | -20.67716 | 36285 ft | 467 kts | 281° |
| 2026-05-05 12:03 | 58.06956 | -20.79852 | 36304 ft | 468 kts | 281° |
| 2026-05-05 12:03 | 58.07967 | -20.92002 | 36303 ft | 468 kts | 281° |
| 2026-05-05 12:04 | 58.08965 | -21.04153 | 36303 ft | 468 kts | 281° |
| 2026-05-05 12:04 | 58.09953 | -21.16315 | 36303 ft | 468 kts | 281° |
| 2026-05-05 12:05 | 58.10929 | -21.28489 | 36310 ft | 468 kts | 281° |
| 2026-05-05 12:05 | 58.11891 | -21.40657 | 36308 ft | 467 kts | 281° |
| 2026-05-05 12:06 | 58.12842 | -21.52814 | 36298 ft | 467 kts | 281° |
| 2026-05-05 12:06 | 58.13785 | -21.65015 | 36304 ft | 468 kts | 281° |
| 2026-05-05 12:07 | 58.14714 | -21.77201 | 36307 ft | 468 kts | 281° |
| 2026-05-05 12:07 | 58.15627 | -21.89332 | 36314 ft | 468 kts | 281° |
| 2026-05-05 12:08 | 58.16532 | -22.01526 | 36311 ft | 468 kts | 281° |
| 2026-05-05 12:08 | 58.17427 | -22.13752 | 36303 ft | 468 kts | 281° |
| 2026-05-05 12:09 | 58.18312 | -22.25995 | 36305 ft | 469 kts | 281° |
| 2026-05-05 12:09 | 58.19184 | -22.38243 | 36306 ft | 469 kts | 281° |
| 2026-05-05 12:10 | 58.20045 | -22.50502 | 36312 ft | 468 kts | 281° |
| 2026-05-05 12:10 | 58.20893 | -22.62742 | 36306 ft | 468 kts | 281° |
| 2026-05-05 12:11 | 58.21730 | -22.74996 | 36318 ft | 468 kts | 281° |
| 2026-05-05 12:11 | 58.22556 | -22.87272 | 36312 ft | 469 kts | 281° |
| 2026-05-05 12:12 | 58.23370 | -22.99552 | 36308 ft | 469 kts | 281° |
| 2026-05-05 12:12 | 58.24168 | -23.11769 | 36306 ft | 469 kts | 281° |
| 2026-05-05 12:13 | 58.24960 | -23.24078 | 36305 ft | 469 kts | 281° |
| 2026-05-05 12:13 | 58.25741 | -23.36405 | 36306 ft | 469 kts | 281° |
| 2026-05-05 12:14 | 58.26509 | -23.48734 | 36307 ft | 469 kts | 281° |
| 2026-05-05 12:14 | 58.27265 | -23.61054 | 36307 ft | 470 kts | 281° |
| 2026-05-05 12:15 | 58.28009 | -23.73389 | 36306 ft | 470 kts | 281° |
| 2026-05-05 12:15 | 58.28742 | -23.85722 | 36302 ft | 469 kts | 281° |
| 2026-05-05 12:16 | 58.29462 | -23.98056 | 36298 ft | 470 kts | 281° |
| 2026-05-05 12:16 | 58.30166 | -24.10320 | 36297 ft | 470 kts | 281° |
| 2026-05-05 12:17 | 58.30863 | -24.22666 | 36268 ft | 470 kts | 281° |
| 2026-05-05 12:17 | 58.31550 | -24.35044 | 36302 ft | 470 kts | 281° |
| 2026-05-05 12:18 | 58.32224 | -24.47429 | 36300 ft | 470 kts | 281° |
| 2026-05-05 12:18 | 58.32886 | -24.59813 | 36298 ft | 471 kts | 281° |
| 2026-05-05 12:19 | 58.33536 | -24.72209 | 36298 ft | 471 kts | 281° |
| 2026-05-05 12:19 | 58.34175 | -24.84610 | 36293 ft | 470 kts | 281° |
| 2026-05-05 12:20 | 58.34795 | -24.96900 | 36267 ft | 469 kts | 281° |
| 2026-05-05 12:20 | 58.35408 | -25.09269 | 36292 ft | 469 kts | 281° |
| 2026-05-05 12:21 | 58.36010 | -25.21657 | 36294 ft | 469 kts | 281° |
| 2026-05-05 12:21 | 58.36600 | -25.34061 | 36289 ft | 470 kts | 281° |
| 2026-05-05 12:22 | 58.37174 | -25.46386 | 36292 ft | 470 kts | 281° |
| 2026-05-05 12:22 | 58.37740 | -25.58799 | 36297 ft | 470 kts | 280° |
| 2026-05-05 12:23 | 58.38294 | -25.71212 | 36268 ft | 470 kts | 280° |
| 2026-05-05 12:23 | 58.38838 | -25.83648 | 36290 ft | 470 kts | 280° |
| 2026-05-05 12:24 | 58.39368 | -25.96067 | 36290 ft | 470 kts | 280° |
| 2026-05-05 12:24 | 58.39883 | -26.08459 | 36289 ft | 468 kts | 280° |
| 2026-05-05 12:25 | 58.40383 | -26.20752 | 36287 ft | 467 kts | 280° |
| 2026-05-05 12:25 | 58.40875 | -26.33111 | 36289 ft | 467 kts | 280° |
| 2026-05-05 12:26 | 58.41355 | -26.45477 | 36290 ft | 467 kts | 280° |
| 2026-05-05 12:26 | 58.41822 | -26.57812 | 36290 ft | 467 kts | 279° |
| 2026-05-05 12:27 | 58.42279 | -26.70226 | 36288 ft | 467 kts | 279° |
| 2026-05-05 12:27 | 58.42723 | -26.82602 | 36286 ft | 467 kts | 279° |
| 2026-05-05 12:28 | 58.43152 | -26.94895 | 36287 ft | 468 kts | 279° |
| 2026-05-05 12:28 | 58.43572 | -27.07275 | 36288 ft | 468 kts | 279° |
| 2026-05-05 12:29 | 58.43980 | -27.19676 | 36281 ft | 467 kts | 279° |
| 2026-05-05 12:29 | 58.44374 | -27.32024 | 36281 ft | 465 kts | 279° |
| 2026-05-05 12:30 | 58.44755 | -27.44282 | 36287 ft | 465 kts | 279° |
| 2026-05-05 12:30 | 58.45126 | -27.56615 | 36287 ft | 465 kts | 278° |
| 2026-05-05 12:31 | 58.45486 | -27.68964 | 36281 ft | 465 kts | 278° |
| 2026-05-05 12:31 | 58.45833 | -27.81326 | 36281 ft | 465 kts | 278° |
| 2026-05-05 12:32 | 58.46114 | -27.91594 | 36289 ft | 466 kts | 278° |
| 2026-05-05 12:32 | 58.46491 | -28.05969 | 36289 ft | 466 kts | 278° |
| 2026-05-05 12:33 | 58.46752 | -28.16328 | 36270 ft | 466 kts | 278° |
| 2026-05-05 12:33 | 58.47054 | -28.28699 | 36268 ft | 466 kts | 278° |
| 2026-05-05 12:34 | 58.47342 | -28.41005 | 36285 ft | 466 kts | 278° |
| 2026-05-05 12:34 | 58.47621 | -28.53401 | 36270 ft | 466 kts | 277° |
| 2026-05-05 12:35 | 58.47888 | -28.65773 | 36273 ft | 467 kts | 277° |
| 2026-05-05 12:35 | 58.48142 | -28.78164 | 36265 ft | 466 kts | 277° |
| 2026-05-05 12:36 | 58.48385 | -28.90568 | 36269 ft | 467 kts | 277° |
| 2026-05-05 12:36 | 58.48615 | -29.02954 | 36268 ft | 467 kts | 277° |
| 2026-05-05 12:37 | 58.48833 | -29.15283 | 36265 ft | 467 kts | 277° |
| 2026-05-05 12:37 | 58.49040 | -29.27717 | 36273 ft | 467 kts | 277° |
| 2026-05-05 12:38 | 58.49236 | -29.40130 | 36269 ft | 468 kts | 276° |
| 2026-05-05 12:38 | 58.49419 | -29.52559 | 36272 ft | 468 kts | 276° |
| 2026-05-05 12:39 | 58.49590 | -29.64975 | 36270 ft | 467 kts | 276° |
| 2026-05-05 12:39 | 58.49748 | -29.77379 | 36270 ft | 466 kts | 276° |
| 2026-05-05 12:40 | 58.49896 | -29.89782 | 36272 ft | 466 kts | 276° |
| 2026-05-05 12:40 | 58.50030 | -30.02174 | 36268 ft | 467 kts | 276° |
| 2026-05-05 12:41 | 58.49952 | -30.14552 | 36274 ft | 470 kts | 273° |
| 2026-05-05 12:41 | 58.49738 | -30.27049 | 36269 ft | 470 kts | 272° |
| 2026-05-05 12:42 | 58.49533 | -30.39544 | 36273 ft | 470 kts | 273° |
| 2026-05-05 12:42 | 58.49347 | -30.52043 | 36273 ft | 470 kts | 273° |
| 2026-05-05 12:43 | 58.49159 | -30.64565 | 36267 ft | 470 kts | 273° |
| 2026-05-05 12:43 | 58.48961 | -30.77075 | 36255 ft | 470 kts | 272° |
| 2026-05-05 12:44 | 58.48749 | -30.89580 | 36270 ft | 471 kts | 272° |
| 2026-05-05 12:44 | 58.48524 | -31.02007 | 36270 ft | 471 kts | 272° |
| 2026-05-05 12:45 | 58.48286 | -31.14512 | 36269 ft | 471 kts | 272° |
| 2026-05-05 12:45 | 58.48036 | -31.27022 | 36271 ft | 471 kts | 272° |
| 2026-05-05 12:46 | 58.47773 | -31.39554 | 36270 ft | 471 kts | 272° |
| 2026-05-05 12:46 | 58.47499 | -31.52069 | 36274 ft | 472 kts | 271° |
| 2026-05-05 12:47 | 58.47212 | -31.64620 | 36269 ft | 473 kts | 271° |
| 2026-05-05 12:47 | 58.46914 | -31.77100 | 36270 ft | 473 kts | 271° |
| 2026-05-05 12:48 | 58.46601 | -31.89672 | 36271 ft | 473 kts | 271° |
| 2026-05-05 12:48 | 58.46276 | -32.02233 | 36276 ft | 473 kts | 271° |
| 2026-05-05 12:49 | 58.45939 | -32.14784 | 36272 ft | 473 kts | 271° |
| 2026-05-05 12:49 | 58.45591 | -32.27275 | 36271 ft | 474 kts | 270° |
| 2026-05-05 12:50 | 58.45229 | -32.39860 | 36271 ft | 475 kts | 270° |
| 2026-05-05 12:50 | 58.44854 | -32.52456 | 36271 ft | 475 kts | 270° |
| 2026-05-05 12:51 | 58.44466 | -32.65047 | 36273 ft | 475 kts | 270° |
| 2026-05-05 12:51 | 58.44069 | -32.77567 | 36273 ft | 475 kts | 270° |
| 2026-05-05 12:52 | 58.43657 | -32.90155 | 36254 ft | 475 kts | 269° |
| 2026-05-05 12:52 | 58.43233 | -33.02762 | 36272 ft | 476 kts | 269° |
| 2026-05-05 12:53 | 58.42794 | -33.15376 | 36270 ft | 477 kts | 269° |
| 2026-05-05 12:53 | 58.42342 | -33.28030 | 36272 ft | 477 kts | 269° |
| 2026-05-05 12:54 | 58.41645 | -33.46886 | 36271 ft | 477 kts | 269° |
| 2026-05-05 12:55 | 58.41162 | -33.59536 | 36270 ft | 478 kts | 269° |
| 2026-05-05 12:55 | 58.40666 | -33.72187 | 36269 ft | 478 kts | 268° |
| 2026-05-05 12:56 | 58.40158 | -33.84826 | 36268 ft | 478 kts | 268° |
| 2026-05-05 12:56 | 58.39637 | -33.97473 | 36268 ft | 478 kts | 268° |
| 2026-05-05 12:57 | 58.39105 | -34.10109 | 36270 ft | 478 kts | 268° |
| 2026-05-05 12:57 | 58.38563 | -34.22654 | 36266 ft | 478 kts | 268° |
| 2026-05-05 12:58 | 58.38005 | -34.35305 | 36268 ft | 479 kts | 267° |
| 2026-05-05 12:58 | 58.37433 | -34.47980 | 36264 ft | 480 kts | 267° |
| 2026-05-05 12:59 | 58.36847 | -34.60651 | 36269 ft | 480 kts | 267° |
| 2026-05-05 12:59 | 58.36250 | -34.73314 | 36262 ft | 480 kts | 267° |
| 2026-05-05 13:00 | 58.35331 | -34.92280 | 36261 ft | 481 kts | 267° |
| 2026-05-05 13:01 | 58.34057 | -35.17688 | 36270 ft | 483 kts | 266° |
| 2026-05-05 13:01 | 58.33399 | -35.30412 | 36265 ft | 483 kts | 266° |
| 2026-05-05 13:02 | 58.32729 | -35.43122 | 36263 ft | 483 kts | 266° |
| 2026-05-05 13:02 | 58.32046 | -35.55840 | 36272 ft | 483 kts | 266° |
| 2026-05-05 13:03 | 58.31350 | -35.68553 | 36255 ft | 483 kts | 265° |
| 2026-05-05 13:03 | 58.30640 | -35.81293 | 36275 ft | 485 kts | 265° |
| 2026-05-05 13:04 | 58.29920 | -35.93982 | 36259 ft | 485 kts | 265° |
| 2026-05-05 13:04 | 58.29182 | -36.06743 | 36266 ft | 486 kts | 265° |
| 2026-05-05 13:05 | 58.28429 | -36.19554 | 36257 ft | 487 kts | 265° |
| 2026-05-05 13:05 | 58.27663 | -36.32349 | 36265 ft | 487 kts | 265° |
| 2026-05-05 13:06 | 58.26890 | -36.45069 | 36268 ft | 487 kts | 264° |
| 2026-05-05 13:06 | 58.26092 | -36.57957 | 36253 ft | 488 kts | 264° |
| 2026-05-05 13:07 | 58.25286 | -36.70761 | 36256 ft | 488 kts | 264° |
| 2026-05-05 13:07 | 58.24468 | -36.83565 | 36245 ft | 488 kts | 264° |
| 2026-05-05 13:08 | 58.23641 | -36.96285 | 36261 ft | 488 kts | 263° |
| 2026-05-05 13:08 | 58.22797 | -37.09078 | 36259 ft | 488 kts | 263° |
| 2026-05-05 13:09 | 58.21938 | -37.21898 | 36252 ft | 491 kts | 263° |
| 2026-05-05 13:09 | 58.21064 | -37.34751 | 36250 ft | 491 kts | 263° |
| 2026-05-05 13:10 | 58.20175 | -37.47609 | 36251 ft | 492 kts | 263° |
| 2026-05-05 13:10 | 58.19271 | -37.60494 | 36244 ft | 492 kts | 262° |
| 2026-05-05 13:11 | 58.18363 | -37.73249 | 36238 ft | 491 kts | 262° |
| 2026-05-05 13:11 | 58.17436 | -37.86099 | 36238 ft | 493 kts | 262° |
| 2026-05-05 13:12 | 58.16491 | -37.98991 | 36234 ft | 495 kts | 262° |
| 2026-05-05 13:12 | 58.15532 | -38.11893 | 36234 ft | 495 kts | 261° |
| 2026-05-05 13:13 | 58.14559 | -38.24802 | 36226 ft | 495 kts | 261° |
| 2026-05-05 13:13 | 58.13573 | -38.37705 | 36230 ft | 495 kts | 261° |
| 2026-05-05 13:14 | 58.12575 | -38.50588 | 36226 ft | 495 kts | 261° |
| 2026-05-05 13:14 | 58.11560 | -38.63514 | 36221 ft | 497 kts | 261° |
| 2026-05-05 13:15 | 58.10539 | -38.76352 | 36221 ft | 497 kts | 261° |
| 2026-05-05 13:15 | 58.09496 | -38.89289 | 36216 ft | 497 kts | 260° |
| 2026-05-05 13:16 | 58.08441 | -39.02202 | 36206 ft | 497 kts | 260° |
| 2026-05-05 13:16 | 58.07370 | -39.15147 | 36226 ft | 497 kts | 260° |
| 2026-05-05 13:17 | 58.06288 | -39.28071 | 36206 ft | 499 kts | 259° |
| 2026-05-05 13:17 | 58.05188 | -39.41021 | 36197 ft | 499 kts | 259° |
| 2026-05-05 13:18 | 58.04075 | -39.53972 | 36197 ft | 500 kts | 259° |
| 2026-05-05 13:18 | 58.02950 | -39.66904 | 36187 ft | 500 kts | 259° |
| 2026-05-05 13:19 | 58.01818 | -39.79754 | 36186 ft | 499 kts | 259° |
| 2026-05-05 13:19 | 58.00666 | -39.92693 | 36176 ft | 501 kts | 258° |
| 2026-05-05 13:20 | 57.99537 | -40.05665 | 36176 ft | 502 kts | 260° |
| 2026-05-05 13:20 | 57.98758 | -40.18748 | 36175 ft | 503 kts | 262° |
| 2026-05-05 13:21 | 57.98179 | -40.29676 | 36176 ft | 503 kts | 262° |
| 2026-05-05 13:21 | 57.97430 | -40.42758 | 36165 ft | 502 kts | 262° |
| 2026-05-05 13:22 | 57.96491 | -40.57951 | 36165 ft | 502 kts | 261° |
| 2026-05-05 13:22 | 57.95797 | -40.68818 | 36148 ft | 502 kts | 261° |
| 2026-05-05 13:23 | 57.94951 | -40.81875 | 36149 ft | 502 kts | 261° |
| 2026-05-05 13:23 | 57.94094 | -40.94925 | 36148 ft | 502 kts | 261° |
| 2026-05-05 13:24 | 57.93224 | -41.07981 | 36138 ft | 502 kts | 261° |
| 2026-05-05 13:24 | 57.92346 | -41.20947 | 36138 ft | 502 kts | 261° |
| 2026-05-05 13:25 | 57.91450 | -41.33984 | 36125 ft | 503 kts | 260° |
| 2026-05-05 13:25 | 57.90537 | -41.47044 | 36125 ft | 504 kts | 259° |
| 2026-05-05 13:26 | 57.89612 | -41.60105 | 36108 ft | 504 kts | 259° |
| 2026-05-05 13:26 | 57.88672 | -41.73163 | 36108 ft | 504 kts | 259° |
| 2026-05-05 13:27 | 57.87719 | -41.86219 | 36093 ft | 504 kts | 259° |
| 2026-05-05 13:27 | 57.86754 | -41.99255 | 36120 ft | 504 kts | 258° |
| 2026-05-05 13:28 | 57.85770 | -42.12323 | 36079 ft | 507 kts | 258° |
| 2026-05-05 13:28 | 57.84771 | -42.25430 | 36083 ft | 507 kts | 258° |
| 2026-05-05 13:29 | 57.83766 | -42.38452 | 36080 ft | 507 kts | 258° |
| 2026-05-05 13:29 | 57.82738 | -42.51575 | 36066 ft | 507 kts | 258° |
| 2026-05-05 13:30 | 57.81697 | -42.64676 | 36068 ft | 507 kts | 258° |
| 2026-05-05 13:30 | 57.80640 | -42.77792 | 36051 ft | 510 kts | 257° |
| 2026-05-05 13:31 | 57.79568 | -42.90911 | 36048 ft | 512 kts | 257° |
| 2026-05-05 13:31 | 57.78480 | -43.04096 | 36035 ft | 512 kts | 257° |
| 2026-05-05 13:32 | 57.77376 | -43.17281 | 36036 ft | 512 kts | 257° |
| 2026-05-05 13:32 | 57.76257 | -43.30471 | 36022 ft | 512 kts | 257° |
| 2026-05-05 13:33 | 57.75123 | -43.43662 | 36037 ft | 513 kts | 256° |
| 2026-05-05 13:33 | 57.73975 | -43.56836 | 36011 ft | 517 kts | 256° |
| 2026-05-05 13:34 | 57.72804 | -43.70121 | 36010 ft | 517 kts | 256° |
| 2026-05-05 13:34 | 57.71621 | -43.83395 | 35998 ft | 517 kts | 256° |
| 2026-05-05 13:35 | 57.70422 | -43.96674 | 35992 ft | 517 kts | 256° |
| 2026-05-05 13:35 | 57.69209 | -44.09938 | 36027 ft | 517 kts | 255° |
| 2026-05-05 13:36 | 57.67984 | -44.23155 | 35992 ft | 521 kts | 255° |
| 2026-05-05 13:36 | 57.66732 | -44.36514 | 35979 ft | 522 kts | 255° |
| 2026-05-05 13:37 | 57.65466 | -44.49884 | 35967 ft | 522 kts | 255° |
| 2026-05-05 13:37 | 57.64185 | -44.63249 | 35968 ft | 522 kts | 255° |
| 2026-05-05 13:38 | 57.62898 | -44.76520 | 35958 ft | 522 kts | 255° |
| 2026-05-05 13:38 | 57.61585 | -44.89881 | 35960 ft | 523 kts | 254° |
| 2026-05-05 13:39 | 57.60258 | -45.03244 | 35947 ft | 524 kts | 253° |
| 2026-05-05 13:39 | 57.58917 | -45.16609 | 35946 ft | 524 kts | 253° |
| 2026-05-05 13:40 | 57.57562 | -45.29963 | 35935 ft | 524 kts | 253° |
| 2026-05-05 13:40 | 57.56202 | -45.43212 | 35936 ft | 524 kts | 253° |
| 2026-05-05 13:41 | 57.54818 | -45.56546 | 35928 ft | 524 kts | 253° |
| 2026-05-05 13:41 | 57.53417 | -45.69895 | 35927 ft | 525 kts | 252° |
| 2026-05-05 13:42 | 57.52004 | -45.83222 | 35912 ft | 525 kts | 252° |
| 2026-05-05 13:42 | 57.50576 | -45.96546 | 35912 ft | 524 kts | 252° |
| 2026-05-05 13:43 | 57.49144 | -46.09757 | 35900 ft | 524 kts | 252° |
| 2026-05-05 13:43 | 57.47690 | -46.23043 | 35920 ft | 524 kts | 252° |
| 2026-05-05 13:44 | 57.46220 | -46.36339 | 35894 ft | 525 kts | 252° |
| 2026-05-05 13:44 | 57.44738 | -46.49600 | 35892 ft | 525 kts | 252° |
| 2026-05-05 13:45 | 57.43241 | -46.62863 | 35881 ft | 525 kts | 251° |
| 2026-05-05 13:45 | 57.41728 | -46.76126 | 35877 ft | 525 kts | 251° |
| 2026-05-05 13:46 | 57.40205 | -46.89354 | 35902 ft | 525 kts | 251° |
| 2026-05-05 13:46 | 57.38667 | -47.02577 | 35862 ft | 524 kts | 251° |
| 2026-05-05 13:47 | 57.37126 | -47.15696 | 35863 ft | 524 kts | 251° |
| 2026-05-05 13:47 | 57.35562 | -47.28880 | 35860 ft | 524 kts | 251° |
| 2026-05-05 13:48 | 57.33983 | -47.42070 | 35855 ft | 524 kts | 251° |
| 2026-05-05 13:48 | 57.32387 | -47.55268 | 35846 ft | 524 kts | 251° |
| 2026-05-05 13:49 | 57.30781 | -47.68423 | 35847 ft | 524 kts | 251° |
| 2026-05-05 13:49 | 57.29181 | -47.81416 | 35833 ft | 524 kts | 250° |
| 2026-05-05 13:50 | 57.27548 | -47.94545 | 35831 ft | 524 kts | 250° |
| 2026-05-05 13:50 | 57.25901 | -48.07669 | 35821 ft | 524 kts | 250° |
| 2026-05-05 13:51 | 57.24242 | -48.20772 | 35818 ft | 524 kts | 250° |
| 2026-05-05 13:51 | 57.22570 | -48.33852 | 35804 ft | 523 kts | 250° |
| 2026-05-05 13:52 | 57.20887 | -48.46910 | 35800 ft | 522 kts | 250° |
| 2026-05-05 13:52 | 57.19193 | -48.59920 | 35783 ft | 522 kts | 250° |
| 2026-05-05 13:53 | 57.17486 | -48.72923 | 35784 ft | 522 kts | 250° |
| 2026-05-05 13:53 | 57.15762 | -48.85943 | 35773 ft | 522 kts | 250° |
| 2026-05-05 13:54 | 57.14038 | -48.98850 | 35768 ft | 521 kts | 250° |
| 2026-05-05 13:54 | 57.12294 | -49.11798 | 35752 ft | 521 kts | 250° |
| 2026-05-05 13:55 | 57.10537 | -49.24723 | 35755 ft | 520 kts | 250° |
| 2026-05-05 13:55 | 57.08766 | -49.37641 | 35741 ft | 520 kts | 250° |
| 2026-05-05 13:56 | 57.06983 | -49.50539 | 35733 ft | 520 kts | 250° |
| 2026-05-05 13:56 | 57.05189 | -49.63414 | 35734 ft | 520 kts | 250° |
| 2026-05-05 13:57 | 57.03384 | -49.76256 | 35721 ft | 519 kts | 250° |
| 2026-05-05 13:57 | 57.01578 | -49.89000 | 35705 ft | 518 kts | 250° |
| 2026-05-05 13:58 | 56.99520 | -50.01624 | 35709 ft | 512 kts | 242° |
| 2026-05-05 13:58 | 56.96761 | -50.13666 | 35688 ft | 511 kts | 240° |
| 2026-05-05 13:59 | 56.92438 | -50.31427 | 35682 ft | 510 kts | 240° |
| 2026-05-05 14:00 | 56.88576 | -50.47171 | 35683 ft | 509 kts | 240° |
| 2026-05-05 14:00 | 56.85183 | -50.60971 | 35655 ft | 509 kts | 240° |
| 2026-05-05 14:01 | 56.82272 | -50.72755 | 35669 ft | 509 kts | 240° |
| 2026-05-05 14:01 | 56.79350 | -50.84518 | 35650 ft | 508 kts | 240° |
| 2026-05-05 14:02 | 56.76419 | -50.96255 | 35640 ft | 508 kts | 240° |
| 2026-05-05 14:02 | 56.73477 | -51.07969 | 35628 ft | 508 kts | 240° |
| 2026-05-05 14:03 | 56.70524 | -51.19667 | 35628 ft | 508 kts | 240° |
| 2026-05-05 14:03 | 56.67561 | -51.31342 | 35618 ft | 508 kts | 240° |
| 2026-05-05 14:04 | 56.64606 | -51.42922 | 35617 ft | 507 kts | 240° |
| 2026-05-05 14:04 | 56.61631 | -51.54524 | 35587 ft | 507 kts | 240° |
| 2026-05-05 14:05 | 56.58643 | -51.66115 | 35581 ft | 506 kts | 240° |
| 2026-05-05 14:05 | 56.55644 | -51.77688 | 35571 ft | 506 kts | 240° |
| 2026-05-05 14:06 | 56.52635 | -51.89238 | 35586 ft | 506 kts | 240° |
| 2026-05-05 14:06 | 56.49619 | -52.00758 | 35563 ft | 505 kts | 240° |
| 2026-05-05 14:07 | 56.46620 | -52.12156 | 35555 ft | 505 kts | 240° |
| 2026-05-05 14:07 | 56.43586 | -52.23628 | 35554 ft | 505 kts | 240° |
| 2026-05-05 14:08 | 56.40545 | -52.35066 | 35539 ft | 505 kts | 240° |
| 2026-05-05 14:08 | 56.37494 | -52.46490 | 35541 ft | 504 kts | 240° |
| 2026-05-05 14:09 | 56.34445 | -52.57847 | 35525 ft | 503 kts | 240° |
| 2026-05-05 14:09 | 56.31383 | -52.69189 | 35525 ft | 503 kts | 240° |
| 2026-05-05 14:10 | 56.28315 | -52.80499 | 35514 ft | 503 kts | 240° |
| 2026-05-05 14:10 | 56.25237 | -52.91793 | 35514 ft | 502 kts | 240° |
| 2026-05-05 14:11 | 56.22171 | -53.02985 | 35509 ft | 502 kts | 240° |
| 2026-05-05 14:11 | 56.19070 | -53.14249 | 35508 ft | 503 kts | 240° |
| 2026-05-05 14:12 | 56.16481 | -53.23611 | 35510 ft | 503 kts | 240° |
| 2026-05-05 14:12 | 56.13361 | -53.34848 | 35510 ft | 502 kts | 240° |
| 2026-05-05 14:13 | 56.10236 | -53.46045 | 35499 ft | 502 kts | 240° |
| 2026-05-05 14:13 | 56.07097 | -53.57235 | 35490 ft | 503 kts | 239° |
| 2026-05-05 14:14 | 56.03940 | -53.68435 | 35479 ft | 504 kts | 239° |
| 2026-05-05 14:14 | 56.00774 | -53.79618 | 35473 ft | 504 kts | 239° |
| 2026-05-05 14:15 | 55.97618 | -53.90710 | 35470 ft | 504 kts | 239° |
| 2026-05-05 14:15 | 55.94432 | -54.01853 | 35479 ft | 503 kts | 240° |
| 2026-05-05 14:16 | 55.91248 | -54.12944 | 35459 ft | 501 kts | 240° |
| 2026-05-05 14:16 | 55.88058 | -54.23993 | 35444 ft | 501 kts | 240° |
| 2026-05-05 14:17 | 55.84861 | -54.35015 | 35445 ft | 501 kts | 239° |
| 2026-05-05 14:17 | 55.81677 | -54.45939 | 35444 ft | 501 kts | 239° |
| 2026-05-05 14:18 | 55.78464 | -54.56917 | 35428 ft | 499 kts | 239° |
| 2026-05-05 14:18 | 55.75249 | -54.67848 | 35423 ft | 498 kts | 239° |
| 2026-05-05 14:19 | 55.72030 | -54.78735 | 35444 ft | 498 kts | 239° |
| 2026-05-05 14:19 | 55.68810 | -54.89578 | 35435 ft | 500 kts | 239° |
| 2026-05-05 14:20 | 55.65537 | -55.00544 | 35413 ft | 500 kts | 239° |
| 2026-05-05 14:20 | 55.62304 | -55.11344 | 35412 ft | 499 kts | 239° |
| 2026-05-05 14:21 | 55.59047 | -55.22172 | 35412 ft | 498 kts | 239° |
| 2026-05-05 14:21 | 55.55778 | -55.32971 | 35409 ft | 498 kts | 239° |
| 2026-05-05 14:22 | 55.52502 | -55.43748 | 35401 ft | 498 kts | 239° |
| 2026-05-05 14:22 | 55.49221 | -55.54500 | 35407 ft | 498 kts | 239° |
| 2026-05-05 14:23 | 55.45953 | -55.65163 | 35389 ft | 496 kts | 239° |
| 2026-05-05 14:23 | 55.42665 | -55.75842 | 35390 ft | 496 kts | 239° |
| 2026-05-05 14:24 | 55.39367 | -55.86507 | 35388 ft | 496 kts | 239° |
| 2026-05-05 14:24 | 55.36057 | -55.97162 | 35389 ft | 496 kts | 239° |
| 2026-05-05 14:25 | 55.32736 | -56.07800 | 35380 ft | 497 kts | 239° |
| 2026-05-05 14:25 | 55.29400 | -56.18443 | 35378 ft | 497 kts | 239° |
| 2026-05-05 14:26 | 55.26057 | -56.29061 | 35381 ft | 497 kts | 239° |
| 2026-05-05 14:26 | 55.22724 | -56.39600 | 35381 ft | 497 kts | 239° |
| 2026-05-05 14:27 | 55.19362 | -56.50182 | 35373 ft | 497 kts | 239° |
| 2026-05-05 14:27 | 55.15996 | -56.60732 | 35373 ft | 496 kts | 239° |
| 2026-05-05 14:28 | 55.12629 | -56.71236 | 35375 ft | 495 kts | 239° |
| 2026-05-05 14:28 | 55.09274 | -56.81661 | 35376 ft | 495 kts | 239° |
| 2026-05-05 14:29 | 55.05893 | -56.92118 | 35376 ft | 495 kts | 239° |
| 2026-05-05 14:29 | 55.02311 | -57.02338 | 35379 ft | 493 kts | 234° |
| 2026-05-05 14:30 | 54.98331 | -57.12076 | 35373 ft | 492 kts | 233° |
| 2026-05-05 14:30 | 54.94293 | -57.21674 | 35376 ft | 491 kts | 233° |
| 2026-05-05 14:31 | 54.90261 | -57.31206 | 35373 ft | 492 kts | 233° |
| 2026-05-05 14:31 | 54.86203 | -57.40792 | 35373 ft | 493 kts | 233° |
| 2026-05-05 14:32 | 54.82140 | -57.50368 | 35373 ft | 491 kts | 233° |
| 2026-05-05 14:32 | 54.78079 | -57.59908 | 35373 ft | 491 kts | 233° |
| 2026-05-05 14:33 | 54.74018 | -57.69407 | 35370 ft | 490 kts | 233° |
| 2026-05-05 14:33 | 54.69951 | -57.78886 | 35370 ft | 490 kts | 233° |
| 2026-05-05 14:34 | 54.65879 | -57.88337 | 35367 ft | 490 kts | 233° |
| 2026-05-05 14:34 | 54.61846 | -57.97663 | 35367 ft | 487 kts | 233° |
| 2026-05-05 14:35 | 54.57791 | -58.07006 | 35369 ft | 486 kts | 233° |
| 2026-05-05 14:35 | 54.53732 | -58.16324 | 35371 ft | 486 kts | 233° |
| 2026-05-05 14:36 | 54.49666 | -58.25624 | 35369 ft | 485 kts | 232° |
| 2026-05-05 14:36 | 54.45597 | -58.34892 | 35370 ft | 485 kts | 232° |
| 2026-05-05 14:37 | 54.41520 | -58.44145 | 35369 ft | 485 kts | 232° |
| 2026-05-05 14:37 | 54.37433 | -58.53388 | 35376 ft | 486 kts | 232° |
| 2026-05-05 14:38 | 54.33339 | -58.62610 | 35377 ft | 486 kts | 232° |
| 2026-05-05 14:38 | 54.29235 | -58.71818 | 35384 ft | 484 kts | 233° |
| 2026-05-05 14:39 | 54.25174 | -58.80901 | 35383 ft | 483 kts | 233° |
| 2026-05-05 14:39 | 54.21080 | -58.90026 | 35386 ft | 483 kts | 232° |
| 2026-05-05 14:40 | 54.16984 | -58.99117 | 35389 ft | 483 kts | 232° |
| 2026-05-05 14:40 | 54.12878 | -59.08199 | 35386 ft | 483 kts | 233° |
| 2026-05-05 14:41 | 54.08768 | -59.17255 | 35391 ft | 482 kts | 233° |
| 2026-05-05 14:41 | 54.04656 | -59.26287 | 35393 ft | 482 kts | 232° |
| 2026-05-05 14:42 | 54.00564 | -59.35241 | 35398 ft | 482 kts | 233° |
| 2026-05-05 14:42 | 53.96441 | -59.44230 | 35399 ft | 482 kts | 233° |
| 2026-05-05 14:43 | 53.92313 | -59.53194 | 35401 ft | 481 kts | 232° |
| 2026-05-05 14:43 | 53.88188 | -59.62123 | 35407 ft | 481 kts | 233° |
| 2026-05-05 14:44 | 53.84053 | -59.71042 | 35408 ft | 481 kts | 232° |
| 2026-05-05 14:44 | 53.79918 | -59.79930 | 35408 ft | 481 kts | 232° |
| 2026-05-05 14:45 | 53.75766 | -59.88818 | 35408 ft | 481 kts | 233° |
| 2026-05-05 14:45 | 53.71619 | -59.97666 | 35414 ft | 480 kts | 232° |
| 2026-05-05 14:46 | 53.67467 | -60.06496 | 35415 ft | 480 kts | 232° |
| 2026-05-05 14:46 | 53.63330 | -60.15263 | 35418 ft | 480 kts | 232° |
| 2026-05-05 14:47 | 53.59175 | -60.24036 | 35415 ft | 479 kts | 233° |
| 2026-05-05 14:47 | 53.55019 | -60.32780 | 35422 ft | 478 kts | 233° |
| 2026-05-05 14:48 | 53.50860 | -60.41498 | 35427 ft | 477 kts | 233° |
| 2026-05-05 14:48 | 53.46697 | -60.50197 | 35427 ft | 478 kts | 233° |
| 2026-05-05 14:49 | 53.42527 | -60.58881 | 35455 ft | 478 kts | 233° |
| 2026-05-05 14:49 | 53.38353 | -60.67542 | 35452 ft | 477 kts | 233° |
| 2026-05-05 14:50 | 53.34183 | -60.76162 | 35455 ft | 476 kts | 233° |
| 2026-05-05 14:50 | 53.30005 | -60.84771 | 35456 ft | 476 kts | 233° |
| 2026-05-05 14:51 | 53.25839 | -60.93325 | 35459 ft | 476 kts | 233° |
| 2026-05-05 14:51 | 53.21669 | -61.01862 | 35466 ft | 476 kts | 232° |
| 2026-05-05 14:52 | 53.17474 | -61.10419 | 35470 ft | 476 kts | 233° |
| 2026-05-05 14:52 | 53.13271 | -61.18960 | 35482 ft | 476 kts | 232° |
| 2026-05-05 14:53 | 53.09061 | -61.27487 | 35482 ft | 476 kts | 233° |
| 2026-05-05 14:53 | 53.04848 | -61.35991 | 35478 ft | 476 kts | 232° |
| 2026-05-05 14:54 | 53.00635 | -61.44468 | 35512 ft | 475 kts | 232° |
| 2026-05-05 14:54 | 52.96421 | -61.52919 | 35492 ft | 475 kts | 232° |
| 2026-05-05 14:55 | 52.92204 | -61.61346 | 35502 ft | 474 kts | 232° |
| 2026-05-05 14:55 | 52.88015 | -61.69689 | 35501 ft | 474 kts | 232° |
| 2026-05-05 14:56 | 52.83794 | -61.78066 | 35516 ft | 472 kts | 233° |
| 2026-05-05 14:56 | 52.79590 | -61.86382 | 35518 ft | 470 kts | 233° |
| 2026-05-05 14:57 | 52.75393 | -61.94660 | 35520 ft | 470 kts | 233° |
| 2026-05-05 14:57 | 52.71190 | -62.02924 | 35521 ft | 470 kts | 232° |
| 2026-05-05 14:58 | 52.67006 | -62.11122 | 35521 ft | 470 kts | 232° |
| 2026-05-05 14:58 | 52.62794 | -62.19346 | 35523 ft | 470 kts | 232° |
| 2026-05-05 14:59 | 52.58577 | -62.27553 | 35524 ft | 470 kts | 232° |
| 2026-05-05 14:59 | 52.54343 | -62.35766 | 35528 ft | 469 kts | 232° |
| 2026-05-05 15:00 | 52.50828 | -62.42565 | 35528 ft | 469 kts | 232° |
| 2026-05-05 15:00 | 52.45922 | -62.52020 | 35536 ft | 467 kts | 232° |
| 2026-05-05 15:01 | 52.41706 | -62.60121 | 35537 ft | 467 kts | 232° |
| 2026-05-05 15:01 | 52.38170 | -62.66896 | 35538 ft | 467 kts | 232° |
| 2026-05-05 15:02 | 52.33948 | -62.74959 | 35543 ft | 467 kts | 232° |
| 2026-05-05 15:02 | 52.29726 | -62.82996 | 35542 ft | 464 kts | 232° |
| 2026-05-05 15:03 | 52.25558 | -62.90904 | 35545 ft | 461 kts | 232° |
| 2026-05-05 15:03 | 52.21368 | -62.98831 | 35547 ft | 461 kts | 232° |
| 2026-05-05 15:04 | 52.17171 | -63.06748 | 35545 ft | 461 kts | 232° |
| 2026-05-05 15:04 | 52.12971 | -63.14644 | 35539 ft | 460 kts | 232° |
| 2026-05-05 15:05 | 52.06713 | -63.26358 | 35561 ft | 455 kts | 232° |
| 2026-05-05 15:06 | 52.02576 | -63.34075 | 35557 ft | 455 kts | 232° |
| 2026-05-05 15:06 | 51.98409 | -63.41826 | 35569 ft | 455 kts | 232° |
| 2026-05-05 15:07 | 51.94242 | -63.49550 | 35560 ft | 454 kts | 232° |
| 2026-05-05 15:07 | 51.90087 | -63.57228 | 35572 ft | 451 kts | 232° |
| 2026-05-05 15:08 | 51.85945 | -63.64861 | 35573 ft | 451 kts | 232° |
| 2026-05-05 15:08 | 51.81802 | -63.72472 | 35578 ft | 451 kts | 232° |
| 2026-05-05 15:09 | 51.77675 | -63.80032 | 35568 ft | 451 kts | 232° |
| 2026-05-05 15:09 | 51.73518 | -63.87622 | 35574 ft | 450 kts | 232° |
| 2026-05-05 15:10 | 51.69362 | -63.95188 | 35589 ft | 450 kts | 232° |
| 2026-05-05 15:10 | 51.65199 | -64.02744 | 35585 ft | 451 kts | 232° |
| 2026-05-05 15:11 | 51.61023 | -64.10303 | 35582 ft | 452 kts | 232° |
| 2026-05-05 15:11 | 51.56869 | -64.17799 | 35578 ft | 452 kts | 232° |
| 2026-05-05 15:12 | 51.52671 | -64.25349 | 35588 ft | 453 kts | 232° |
| 2026-05-05 15:12 | 51.48465 | -64.32893 | 35586 ft | 453 kts | 232° |
| 2026-05-05 15:13 | 51.44257 | -64.40415 | 35597 ft | 453 kts | 232° |
| 2026-05-05 15:13 | 51.40047 | -64.47919 | 35579 ft | 453 kts | 231° |
| 2026-05-05 15:14 | 51.35836 | -64.55403 | 35598 ft | 452 kts | 231° |
| 2026-05-05 15:14 | 51.31630 | -64.62860 | 35606 ft | 452 kts | 231° |
| 2026-05-05 15:15 | 51.27414 | -64.70309 | 35602 ft | 452 kts | 231° |
| 2026-05-05 15:15 | 51.23190 | -64.77750 | 35609 ft | 452 kts | 231° |
| 2026-05-05 15:16 | 51.18991 | -64.85124 | 35608 ft | 451 kts | 231° |
| 2026-05-05 15:16 | 51.14769 | -64.92517 | 35614 ft | 450 kts | 231° |
| 2026-05-05 15:17 | 51.10548 | -64.99890 | 35621 ft | 450 kts | 231° |
| 2026-05-05 15:17 | 51.06354 | -65.07195 | 35613 ft | 450 kts | 231° |
| 2026-05-05 15:18 | 51.02126 | -65.14534 | 35621 ft | 449 kts | 231° |
| 2026-05-05 15:18 | 50.97904 | -65.21841 | 35620 ft | 448 kts | 231° |
| 2026-05-05 15:19 | 50.93689 | -65.29120 | 35617 ft | 448 kts | 231° |
| 2026-05-05 15:19 | 50.89472 | -65.36380 | 35625 ft | 448 kts | 231° |
| 2026-05-05 15:20 | 50.85242 | -65.43639 | 35624 ft | 448 kts | 231° |
| 2026-05-05 15:20 | 50.81038 | -65.50832 | 35627 ft | 448 kts | 231° |
| 2026-05-05 15:21 | 50.76802 | -65.58061 | 35628 ft | 448 kts | 231° |
| 2026-05-05 15:21 | 50.72566 | -65.65268 | 35634 ft | 448 kts | 231° |
| 2026-05-05 15:22 | 50.68348 | -65.72425 | 35631 ft | 448 kts | 231° |
| 2026-05-05 15:22 | 50.64115 | -65.79581 | 35639 ft | 443 kts | 231° |
| 2026-05-05 15:23 | 50.59919 | -65.86660 | 35646 ft | 441 kts | 231° |
| 2026-05-05 15:23 | 50.55730 | -65.93711 | 35644 ft | 441 kts | 231° |
| 2026-05-05 15:24 | 50.51535 | -66.00751 | 35649 ft | 441 kts | 231° |
| 2026-05-05 15:24 | 50.47343 | -66.07765 | 35646 ft | 438 kts | 231° |
| 2026-05-05 15:25 | 50.43179 | -66.14705 | 35646 ft | 435 kts | 231° |
| 2026-05-05 15:25 | 50.39065 | -66.21550 | 35643 ft | 434 kts | 231° |
| 2026-05-05 15:26 | 50.34912 | -66.28444 | 35648 ft | 434 kts | 231° |
| 2026-05-05 15:26 | 50.30770 | -66.35300 | 35623 ft | 433 kts | 231° |
| 2026-05-05 15:27 | 50.26641 | -66.42110 | 35640 ft | 429 kts | 231° |
| 2026-05-05 15:27 | 50.22531 | -66.48872 | 35639 ft | 429 kts | 231° |